sensor_id;sensor_type;location;lat;lon;timestamp;pressure;altitude;pressure_sealevel;temperature;humidity
60015;BME280;45867;52.480;6.056;2023-03-23T00:01:26;100128.06;;;10.31;100.00
60015;BME280;45867;52.480;6.056;2023-03-23T00:03:56;100125.84;;;10.38;100.00
60015;BME280;45867;52.480;6.056;2023-03-23T00:06:26;100136.91;;;10.46;100.00
60015;BME280;45867;52.480;6.056;2023-03-23T00:08:54;100138.88;;;10.59;100.00
60015;BME280;45867;52.480;6.056;2023-03-23T00:11:25;100160.13;;;10.54;100.00
60015;BME280;45867;52.480;6.056;2023-03-23T00:13:52;100162.81;;;10.49;100.00
60015;BME280;45867;52.480;6.056;2023-03-23T00:16:23;100143.75;;;10.47;100.00
60015;BME280;45867;52.480;6.056;2023-03-23T00:18:58;100135.91;;;10.36;100.00
60015;BME280;45867;52.480;6.056;2023-03-23T00:21:26;100105.69;;;10.42;100.00
60015;BME280;45867;52.480;6.056;2023-03-23T00:23:59;100102.34;;;10.32;100.00
60015;BME280;45867;52.480;6.056;2023-03-23T00:26:24;100084.88;;;10.31;100.00
60015;BME280;45867;52.480;6.056;2023-03-23T00:28:53;100091.50;;;10.28;100.00
60015;BME280;45867;52.480;6.056;2023-03-23T00:31:18;100085.16;;;10.29;100.00
60015;BME280;45867;52.480;6.056;2023-03-23T00:33:44;100092.31;;;10.29;100.00
60015;BME280;45867;52.480;6.056;2023-03-23T00:36:11;100096.56;;;10.25;100.00
60015;BME280;45867;52.480;6.056;2023-03-23T00:38:38;100122.50;;;10.28;100.00
60015;BME280;45867;52.480;6.056;2023-03-23T00:41:05;100120.09;;;10.31;100.00
60015;BME280;45867;52.480;6.056;2023-03-23T00:43:31;100131.31;;;10.47;100.00
60015;BME280;45867;52.480;6.056;2023-03-23T00:45:58;100123.25;;;10.57;100.00
60015;BME280;45867;52.480;6.056;2023-03-23T00:48:27;100110.84;;;10.53;100.00
60015;BME280;45867;52.480;6.056;2023-03-23T00:50:52;100120.03;;;10.60;100.00
60015;BME280;45867;52.480;6.056;2023-03-23T00:53:18;100122.91;;;10.64;100.00
60015;BME280;45867;52.480;6.056;2023-03-23T00:55:45;100110.56;;;10.54;100.00
60015;BME280;45867;52.480;6.056;2023-03-23T00:58:12;100100.03;;;10.49;100.00
60015;BME280;45867;52.480;6.056;2023-03-23T01:00:38;100107.50;;;10.42;100.00
60015;BME280;45867;52.480;6.056;2023-03-23T01:03:05;100093.72;;;10.45;100.00
60015;BME280;45867;52.480;6.056;2023-03-23T01:05:34;100088.25;;;10.36;100.00
60015;BME280;45867;52.480;6.056;2023-03-23T01:08:01;100117.84;;;10.43;100.00
60015;BME280;45867;52.480;6.056;2023-03-23T01:10:27;100091.34;;;10.43;100.00
60015;BME280;45867;52.480;6.056;2023-03-23T01:12:53;100101.31;;;10.52;100.00
60015;BME280;45867;52.480;6.056;2023-03-23T01:15:20;100092.13;;;10.44;100.00
60015;BME280;45867;52.480;6.056;2023-03-23T01:17:46;100100.38;;;10.42;100.00
60015;BME280;45867;52.480;6.056;2023-03-23T01:20:13;100080.53;;;10.40;100.00
60015;BME280;45867;52.480;6.056;2023-03-23T01:22:41;100082.94;;;10.36;100.00
60015;BME280;45867;52.480;6.056;2023-03-23T01:25:08;100074.59;;;10.24;100.00
60015;BME280;45867;52.480;6.056;2023-03-23T01:27:34;100076.88;;;10.36;100.00
60015;BME280;45867;52.480;6.056;2023-03-23T01:30:00;100079.25;;;10.37;100.00
60015;BME280;45867;52.480;6.056;2023-03-23T01:32:25;100081.53;;;10.44;100.00
60015;BME280;45867;52.480;6.056;2023-03-23T01:34:51;100079.75;;;10.39;100.00
60015;BME280;45867;52.480;6.056;2023-03-23T01:37:16;100086.41;;;10.37;100.00
60015;BME280;45867;52.480;6.056;2023-03-23T01:39:42;100083.41;;;10.43;100.00
60015;BME280;45867;52.480;6.056;2023-03-23T01:42:10;100069.50;;;10.33;100.00
60015;BME280;45867;52.480;6.056;2023-03-23T01:47:01;100027.19;;;10.22;100.00
60015;BME280;45867;52.480;6.056;2023-03-23T01:49:30;100049.09;;;10.33;100.00
60015;BME280;45867;52.480;6.056;2023-03-23T01:52:00;100051.41;;;10.40;100.00
60015;BME280;45867;52.480;6.056;2023-03-23T01:54:28;100043.78;;;10.33;100.00
60015;BME280;45867;52.480;6.056;2023-03-23T01:57:13;100055.28;;;10.48;100.00
60015;BME280;45867;52.480;6.056;2023-03-23T01:59:41;100055.50;;;10.51;100.00
60015;BME280;45867;52.480;6.056;2023-03-23T02:02:10;100053.13;;;10.50;100.00
60015;BME280;45867;52.480;6.056;2023-03-23T02:04:36;100042.06;;;10.48;100.00
60015;BME280;45867;52.480;6.056;2023-03-23T02:07:03;100049.19;;;10.47;100.00
60015;BME280;45867;52.480;6.056;2023-03-23T02:09:29;100044.19;;;10.46;100.00
60015;BME280;45867;52.480;6.056;2023-03-23T02:11:55;100024.19;;;10.34;100.00
60015;BME280;45867;52.480;6.056;2023-03-23T02:14:23;100041.94;;;10.34;100.00
60015;BME280;45867;52.480;6.056;2023-03-23T02:17:03;100051.34;;;10.45;100.00
60015;BME280;45867;52.480;6.056;2023-03-23T02:24:53;100048.47;;;10.41;100.00
60015;BME280;45867;52.480;6.056;2023-03-23T02:27:35;100033.09;;;10.43;100.00
60015;BME280;45867;52.480;6.056;2023-03-23T02:36:01;100036.75;;;10.48;100.00
60015;BME280;45867;52.480;6.056;2023-03-23T02:41:07;100032.00;;;10.44;100.00
60015;BME280;45867;52.480;6.056;2023-03-23T02:43:40;100027.34;;;10.36;100.00
60015;BME280;45867;52.480;6.056;2023-03-23T02:46:08;100027.28;;;10.41;100.00
60015;BME280;45867;52.480;6.056;2023-03-23T02:48:33;100026.50;;;10.41;100.00
60015;BME280;45867;52.480;6.056;2023-03-23T02:51:01;100027.34;;;10.36;100.00
60015;BME280;45867;52.480;6.056;2023-03-23T02:53:28;100033.59;;;10.46;100.00
60015;BME280;45867;52.480;6.056;2023-03-23T02:55:56;100028.69;;;10.34;100.00
60015;BME280;45867;52.480;6.056;2023-03-23T02:58:22;100026.50;;;10.41;100.00
60015;BME280;45867;52.480;6.056;2023-03-23T03:00:49;100017.19;;;10.43;100.00
60015;BME280;45867;52.480;6.056;2023-03-23T03:03:19;100022.44;;;10.49;100.00
60015;BME280;45867;52.480;6.056;2023-03-23T03:06:10;100014.81;;;10.42;100.00
60015;BME280;45867;52.480;6.056;2023-03-23T03:11:52;100021.78;;;10.57;100.00
60015;BME280;45867;52.480;6.056;2023-03-23T03:14:30;100014.34;;;10.59;100.00
60015;BME280;45867;52.480;6.056;2023-03-23T03:17:17;100000.16;;;10.50;100.00
60015;BME280;45867;52.480;6.056;2023-03-23T03:19:48;100013.19;;;10.65;100.00
60015;BME280;45867;52.480;6.056;2023-03-23T03:22:16;100004.53;;;10.59;100.00
60015;BME280;45867;52.480;6.056;2023-03-23T03:24:43;100008.25;;;10.58;100.00
60015;BME280;45867;52.480;6.056;2023-03-23T03:27:12;100022.06;;;10.55;100.00
60015;BME280;45867;52.480;6.056;2023-03-23T03:29:40;100013.00;;;10.61;100.00
60015;BME280;45867;52.480;6.056;2023-03-23T03:32:09;100006.34;;;10.64;100.00
60015;BME280;45867;52.480;6.056;2023-03-23T03:34:43;99980.38;;;10.61;100.00
60015;BME280;45867;52.480;6.056;2023-03-23T03:37:10;99996.34;;;10.75;100.00
60015;BME280;45867;52.480;6.056;2023-03-23T03:39:37;99996.47;;;10.70;100.00
60015;BME280;45867;52.480;6.056;2023-03-23T03:42:03;99999.50;;;10.77;100.00
60015;BME280;45867;52.480;6.056;2023-03-23T03:44:30;99989.22;;;10.75;100.00
60015;BME280;45867;52.480;6.056;2023-03-23T03:46:55;99978.38;;;10.72;100.00
60015;BME280;45867;52.480;6.056;2023-03-23T03:49:21;99992.94;;;10.74;100.00
60015;BME280;45867;52.480;6.056;2023-03-23T03:51:47;99975.59;;;10.63;100.00
60015;BME280;45867;52.480;6.056;2023-03-23T03:54:12;99995.09;;;10.72;100.00
60015;BME280;45867;52.480;6.056;2023-03-23T03:56:38;99999.59;;;10.72;100.00
60015;BME280;45867;52.480;6.056;2023-03-23T03:59:06;99992.72;;;10.89;100.00
60015;BME280;45867;52.480;6.056;2023-03-23T04:01:33;99976.38;;;10.82;100.00
60015;BME280;45867;52.480;6.056;2023-03-23T04:03:59;99988.06;;;10.81;100.00
60015;BME280;45867;52.480;6.056;2023-03-23T04:06:25;99977.66;;;10.85;100.00
60015;BME280;45867;52.480;6.056;2023-03-23T04:08:53;99960.84;;;10.76;100.00
60015;BME280;45867;52.480;6.056;2023-03-23T04:11:20;99987.03;;;10.77;100.00
60015;BME280;45867;52.480;6.056;2023-03-23T04:13:45;99974.31;;;10.79;100.00
60015;BME280;45867;52.480;6.056;2023-03-23T04:16:11;99982.13;;;10.71;100.00
60015;BME280;45867;52.480;6.056;2023-03-23T04:18:36;99975.91;;;10.80;100.00
60015;BME280;45867;52.480;6.056;2023-03-23T04:21:03;99984.56;;;10.86;100.00
60015;BME280;45867;52.480;6.056;2023-03-23T04:23:32;99978.16;;;10.87;100.00
60015;BME280;45867;52.480;6.056;2023-03-23T04:25:59;99971.06;;;10.82;100.00
60015;BME280;45867;52.480;6.056;2023-03-23T04:28:25;99976.38;;;10.82;100.00
60015;BME280;45867;52.480;6.056;2023-03-23T04:30:52;99980.25;;;10.90;100.00
60015;BME280;45867;52.480;6.056;2023-03-23T04:33:28;99976.81;;;10.89;100.00
60015;BME280;45867;52.480;6.056;2023-03-23T04:35:56;99974.09;;;10.76;100.00
60015;BME280;45867;52.480;6.056;2023-03-23T04:38:26;99985.16;;;10.64;100.00
60015;BME280;45867;52.480;6.056;2023-03-23T04:40:52;99996.88;;;10.58;100.00
60015;BME280;45867;52.480;6.056;2023-03-23T04:43:20;100022.63;;;10.52;100.00
60015;BME280;45867;52.480;6.056;2023-03-23T04:45:51;100037.28;;;10.44;100.00
60015;BME280;45867;52.480;6.056;2023-03-23T04:48:17;100020.25;;;10.32;100.00
60015;BME280;45867;52.480;6.056;2023-03-23T04:50:44;100023.09;;;9.87;100.00
60015;BME280;45867;52.480;6.056;2023-03-23T04:53:10;100028.78;;;9.75;100.00
60015;BME280;45867;52.480;6.056;2023-03-23T04:55:36;100022.84;;;9.60;100.00
60015;BME280;45867;52.480;6.056;2023-03-23T04:58:06;100019.94;;;9.27;100.00
60015;BME280;45867;52.480;6.056;2023-03-23T05:00:34;100029.81;;;9.16;100.00
60015;BME280;45867;52.480;6.056;2023-03-23T05:03:00;100027.00;;;9.02;100.00
60015;BME280;45867;52.480;6.056;2023-03-23T05:05:26;100065.34;;;8.95;100.00
60015;BME280;45867;52.480;6.056;2023-03-23T05:07:53;100055.09;;;8.88;100.00
60015;BME280;45867;52.480;6.056;2023-03-23T05:10:18;100058.09;;;8.71;100.00
60015;BME280;45867;52.480;6.056;2023-03-23T05:12:44;100040.97;;;8.63;100.00
60015;BME280;45867;52.480;6.056;2023-03-23T05:15:11;100061.53;;;8.72;100.00
60015;BME280;45867;52.480;6.056;2023-03-23T05:17:37;100065.25;;;8.65;100.00
60015;BME280;45867;52.480;6.056;2023-03-23T05:20:05;100047.00;;;8.74;100.00
60015;BME280;45867;52.480;6.056;2023-03-23T05:22:34;100043.78;;;8.77;100.00
60015;BME280;45867;52.480;6.056;2023-03-23T05:24:59;100050.16;;;8.76;100.00
60015;BME280;45867;52.480;6.056;2023-03-23T05:27:27;100050.66;;;8.78;100.00
60015;BME280;45867;52.480;6.056;2023-03-23T05:29:56;100056.75;;;8.79;100.00
60015;BME280;45867;52.480;6.056;2023-03-23T05:32:24;100063.03;;;8.88;100.00
60015;BME280;45867;52.480;6.056;2023-03-23T05:34:55;100065.13;;;8.86;100.00
60015;BME280;45867;52.480;6.056;2023-03-23T05:37:22;100074.59;;;8.97;100.00
60015;BME280;45867;52.480;6.056;2023-03-23T05:39:47;100043.16;;;8.96;100.00
60015;BME280;45867;52.480;6.056;2023-03-23T05:42:13;100069.53;;;9.06;100.00
60015;BME280;45867;52.480;6.056;2023-03-23T05:44:38;100052.09;;;9.05;100.00
60015;BME280;45867;52.480;6.056;2023-03-23T05:47:03;100045.00;;;9.00;100.00
60015;BME280;45867;52.480;6.056;2023-03-23T05:49:29;100056.81;;;9.08;100.00
60015;BME280;45867;52.480;6.056;2023-03-23T05:51:54;100057.56;;;9.14;100.00
60015;BME280;45867;52.480;6.056;2023-03-23T05:54:20;100066.31;;;9.14;100.00
60015;BME280;45867;52.480;6.056;2023-03-23T05:56:45;100063.41;;;9.10;100.00
60015;BME280;45867;52.480;6.056;2023-03-23T05:59:10;100056.22;;;9.16;100.00
60015;BME280;45867;52.480;6.056;2023-03-23T06:01:37;100065.47;;;9.19;100.00
60015;BME280;45867;52.480;6.056;2023-03-23T06:04:05;100065.97;;;9.26;100.00
60015;BME280;45867;52.480;6.056;2023-03-23T06:06:31;100069.63;;;9.30;100.00
60015;BME280;45867;52.480;6.056;2023-03-23T06:08:57;100073.38;;;9.24;100.00
60015;BME280;45867;52.480;6.056;2023-03-23T06:11:24;100082.00;;;9.34;100.00
60015;BME280;45867;52.480;6.056;2023-03-23T06:13:50;100087.31;;;9.34;100.00
60015;BME280;45867;52.480;6.056;2023-03-23T06:16:15;100088.06;;;9.40;100.00
60015;BME280;45867;52.480;6.056;2023-03-23T06:18:41;100090.69;;;9.40;100.00
60015;BME280;45867;52.480;6.056;2023-03-23T06:21:16;100093.53;;;9.49;100.00
60015;BME280;45867;52.480;6.056;2023-03-23T06:23:44;100107.47;;;9.60;100.00
60015;BME280;45867;52.480;6.056;2023-03-23T06:26:11;100104.00;;;9.64;100.00
60015;BME280;45867;52.480;6.056;2023-03-23T06:28:39;100092.16;;;9.56;100.00
60015;BME280;45867;52.480;6.056;2023-03-23T06:31:26;100099.25;;;9.66;100.00
60015;BME280;45867;52.480;6.056;2023-03-23T06:33:52;100087.63;;;9.62;100.00
60015;BME280;45867;52.480;6.056;2023-03-23T06:36:18;100099.25;;;9.66;100.00
60015;BME280;45867;52.480;6.056;2023-03-23T06:38:44;100100.09;;;9.56;100.00
60015;BME280;45867;52.480;6.056;2023-03-23T06:41:10;100111.47;;;9.57;100.00
60015;BME280;45867;52.480;6.056;2023-03-23T06:43:36;100118.94;;;9.50;100.00
60015;BME280;45867;52.480;6.056;2023-03-23T06:46:07;100102.81;;;9.46;100.00
60015;BME280;45867;52.480;6.056;2023-03-23T06:48:33;100109.66;;;9.52;100.00
60015;BME280;45867;52.480;6.056;2023-03-23T06:51:01;100122.34;;;9.55;100.00
60015;BME280;45867;52.480;6.056;2023-03-23T06:53:27;100117.00;;;9.61;100.00
60015;BME280;45867;52.480;6.056;2023-03-23T06:55:53;100129.91;;;9.67;100.00
60015;BME280;45867;52.480;6.056;2023-03-23T06:58:18;100113.31;;;9.56;100.00
60015;BME280;45867;52.480;6.056;2023-03-23T07:00:44;100129.69;;;9.64;100.00
60015;BME280;45867;52.480;6.056;2023-03-23T07:03:10;100129.16;;;9.62;100.00
60015;BME280;45867;52.480;6.056;2023-03-23T07:05:36;100122.56;;;9.59;100.00
60015;BME280;45867;52.480;6.056;2023-03-23T07:08:04;100129.16;;;9.62;100.00
60015;BME280;45867;52.480;6.056;2023-03-23T07:10:30;100126.09;;;9.49;100.00
60015;BME280;45867;52.480;6.056;2023-03-23T07:12:59;100138.00;;;9.47;100.00
60015;BME280;45867;52.480;6.056;2023-03-23T07:15:25;100135.81;;;9.54;100.00
60015;BME280;45867;52.480;6.056;2023-03-23T07:17:50;100137.94;;;9.52;100.00
60015;BME280;45867;52.480;6.056;2023-03-23T07:20:16;100143.72;;;9.59;100.00
60015;BME280;45867;52.480;6.056;2023-03-23T07:22:41;100141.03;;;9.64;100.00
60015;BME280;45867;52.480;6.056;2023-03-23T07:25:07;100140.50;;;9.67;100.00
60015;BME280;45867;52.480;6.056;2023-03-23T07:27:33;100145.47;;;9.74;100.00
60015;BME280;45867;52.480;6.056;2023-03-23T07:29:58;100141.94;;;9.84;100.00
60015;BME280;45867;52.480;6.056;2023-03-23T07:32:24;100140.28;;;9.93;100.00
60015;BME280;45867;52.480;6.056;2023-03-23T07:34:53;100146.38;;;9.93;100.00
60015;BME280;45867;52.480;6.056;2023-03-23T07:37:21;100137.31;;;9.99;100.00
60015;BME280;45867;52.480;6.056;2023-03-23T07:39:48;100151.22;;;10.15;100.00
60015;BME280;45867;52.480;6.056;2023-03-23T07:42:18;100157.72;;;10.28;100.00
60015;BME280;45867;52.480;6.056;2023-03-23T07:44:47;100160.31;;;10.33;100.00
60015;BME280;45867;52.480;6.056;2023-03-23T07:47:12;100144.75;;;10.27;100.00
60015;BME280;45867;52.480;6.056;2023-03-23T07:49:38;100151.31;;;10.34;100.00
60015;BME280;45867;52.480;6.056;2023-03-23T07:52:04;100138.41;;;10.28;100.00
60015;BME280;45867;52.480;6.056;2023-03-23T07:54:32;100150.50;;;10.34;100.00
60015;BME280;45867;52.480;6.056;2023-03-23T07:56:57;100163.38;;;10.46;100.00
60015;BME280;45867;52.480;6.056;2023-03-23T07:59:23;100169.63;;;10.55;100.00
60015;BME280;45867;52.480;6.056;2023-03-23T08:01:48;100171.84;;;10.48;100.00
60015;BME280;45867;52.480;6.056;2023-03-23T08:04:14;100160.50;;;10.42;100.00
60015;BME280;45867;52.480;6.056;2023-03-23T08:06:40;100182.16;;;10.49;100.00
60015;BME280;45867;52.480;6.056;2023-03-23T08:09:06;100173.63;;;10.52;100.00
60015;BME280;45867;52.480;6.056;2023-03-23T08:11:34;100180.78;;;10.52;100.00
60015;BME280;45867;52.480;6.056;2023-03-23T08:14:01;100180.59;;;10.48;100.00
60015;BME280;45867;52.480;6.056;2023-03-23T08:16:27;100174.94;;;10.55;100.00
60015;BME280;45867;52.480;6.056;2023-03-23T08:18:55;100173.31;;;10.59;100.00
60015;BME280;45867;52.480;6.056;2023-03-23T08:21:22;100168.28;;;10.57;100.00
60015;BME280;45867;52.480;6.056;2023-03-23T08:23:48;100181.06;;;10.74;100.00
60015;BME280;45867;52.480;6.056;2023-03-23T08:26:13;100167.41;;;10.67;100.00
60015;BME280;45867;52.480;6.056;2023-03-23T08:28:41;100188.69;;;10.81;100.00
60015;BME280;45867;52.480;6.056;2023-03-23T08:31:27;100179.56;;;10.68;100.00
60015;BME280;45867;52.480;6.056;2023-03-23T08:33:53;100192.13;;;10.81;100.00
60015;BME280;45867;52.480;6.056;2023-03-23T08:36:20;100179.66;;;10.82;100.00
60015;BME280;45867;52.480;6.056;2023-03-23T08:38:49;100181.63;;;10.95;100.00
60015;BME280;45867;52.480;6.056;2023-03-23T08:41:18;100205.47;;;11.19;100.00
60015;BME280;45867;52.480;6.056;2023-03-23T08:43:43;100205.31;;;11.10;100.00
60015;BME280;45867;52.480;6.056;2023-03-23T08:46:09;100199.00;;;11.06;100.00
60015;BME280;45867;52.480;6.056;2023-03-23T08:48:36;100213.03;;;11.07;100.00
60015;BME280;45867;52.480;6.056;2023-03-23T08:51:04;100222.75;;;10.93;100.00
60015;BME280;45867;52.480;6.056;2023-03-23T08:53:30;100220.16;;;10.87;100.00
60015;BME280;45867;52.480;6.056;2023-03-23T08:56:02;100217.84;;;10.81;100.00
60015;BME280;45867;52.480;6.056;2023-03-23T08:58:29;100217.91;;;10.76;100.00
60015;BME280;45867;52.480;6.056;2023-03-23T09:00:57;100214.19;;;10.77;100.00
60015;BME280;45867;52.480;6.056;2023-03-23T09:03:35;100207.19;;;10.86;100.00
60015;BME280;45867;52.480;6.056;2023-03-23T09:06:20;100208.09;;;11.00;100.00
60015;BME280;45867;52.480;6.056;2023-03-23T09:08:53;100216.97;;;11.09;100.00
60015;BME280;45867;52.480;6.056;2023-03-23T09:11:18;100201.41;;;11.27;100.00
60015;BME280;45867;52.480;6.056;2023-03-23T09:13:44;100211.50;;;11.44;100.00
60015;BME280;45867;52.480;6.056;2023-03-23T09:16:10;100219.03;;;11.55;100.00
60015;BME280;45867;52.480;6.056;2023-03-23T09:18:35;100206.78;;;11.41;100.00
60015;BME280;45867;52.480;6.056;2023-03-23T09:21:02;100231.56;;;11.31;100.00
60015;BME280;45867;52.480;6.056;2023-03-23T09:23:31;100220.28;;;11.20;100.00
60015;BME280;45867;52.480;6.056;2023-03-23T09:26:01;100228.19;;;11.25;100.00
60015;BME280;45867;52.480;6.056;2023-03-23T09:28:26;100215.84;;;11.16;100.00
60015;BME280;45867;52.480;6.056;2023-03-23T09:30:59;100212.19;;;12.53;100.00
60015;BME280;45867;52.480;6.056;2023-03-23T09:33:25;100236.75;;;14.14;100.00
60015;BME280;45867;52.480;6.056;2023-03-23T09:35:51;100229.91;;;14.21;100.00
60015;BME280;45867;52.480;6.056;2023-03-23T09:38:17;100218.28;;;14.17;100.00
60015;BME280;45867;52.480;6.056;2023-03-23T09:40:47;100223.25;;;14.10;100.00
60015;BME280;45867;52.480;6.056;2023-03-23T09:43:37;100227.91;;;14.27;100.00
60015;BME280;45867;52.480;6.056;2023-03-23T09:46:30;100234.09;;;13.91;100.00
60015;BME280;45867;52.480;6.056;2023-03-23T09:48:59;100231.31;;;12.96;100.00
60015;BME280;45867;52.480;6.056;2023-03-23T09:51:46;100236.03;;;13.13;100.00
60015;BME280;45867;52.480;6.056;2023-03-23T09:54:18;100234.47;;;12.84;100.00
60015;BME280;45867;52.480;6.056;2023-03-23T09:56:46;100235.56;;;12.97;100.00
60015;BME280;45867;52.480;6.056;2023-03-23T09:59:17;100235.84;;;13.09;100.00
60015;BME280;45867;52.480;6.056;2023-03-23T10:01:48;100262.44;;;13.23;100.00
60015;BME280;45867;52.480;6.056;2023-03-23T10:07:26;100261.97;;;12.94;100.00
60015;BME280;45867;52.480;6.056;2023-03-23T10:09:54;100236.34;;;12.70;100.00
60015;BME280;45867;52.480;6.056;2023-03-23T10:12:35;100256.22;;;13.14;100.00
60015;BME280;45867;52.480;6.056;2023-03-23T10:17:42;100243.72;;;13.01;100.00
60015;BME280;45867;52.480;6.056;2023-03-23T10:28:37;100276.06;;;14.08;100.00
60015;BME280;45867;52.480;6.056;2023-03-23T10:31:13;100271.44;;;15.16;100.00
60015;BME280;45867;52.480;6.056;2023-03-23T10:33:47;100259.22;;;15.41;100.00
60015;BME280;45867;52.480;6.056;2023-03-23T10:39:12;100269.13;;;16.36;100.00
60015;BME280;45867;52.480;6.056;2023-03-23T10:41:40;100262.44;;;16.69;100.00
60015;BME280;45867;52.480;6.056;2023-03-23T10:44:12;100272.16;;;15.65;100.00
60015;BME280;45867;52.480;6.056;2023-03-23T10:46:40;100268.72;;;16.00;100.00
60015;BME280;45867;52.480;6.056;2023-03-23T10:49:19;100278.16;;;15.05;100.00
60015;BME280;45867;52.480;6.056;2023-03-23T10:51:53;100259.66;;;14.69;100.00
60015;BME280;45867;52.480;6.056;2023-03-23T10:54:31;100267.56;;;14.29;100.00
60015;BME280;45867;52.480;6.056;2023-03-23T10:56:58;100261.06;;;14.66;100.00
60015;BME280;45867;52.480;6.056;2023-03-23T10:59:29;100271.38;;;14.99;100.00
60015;BME280;45867;52.480;6.056;2023-03-23T11:01:58;100282.72;;;14.19;100.00
60015;BME280;45867;52.480;6.056;2023-03-23T11:04:25;100280.41;;;13.82;100.00
60015;BME280;45867;52.480;6.056;2023-03-23T11:06:53;100285.31;;;14.11;100.00
60015;BME280;45867;52.480;6.056;2023-03-23T11:09:21;100284.63;;;14.50;100.00
60015;BME280;45867;52.480;6.056;2023-03-23T11:11:57;100286.75;;;16.46;100.00
60015;BME280;45867;52.480;6.056;2023-03-23T11:14:28;100280.34;;;16.04;100.00
60015;BME280;45867;52.480;6.056;2023-03-23T11:16:56;100285.94;;;16.54;100.00
60015;BME280;45867;52.480;6.056;2023-03-23T11:19:28;100305.66;;;15.97;100.00
60015;BME280;45867;52.480;6.056;2023-03-23T11:22:12;100291.72;;;15.26;100.00
60015;BME280;45867;52.480;6.056;2023-03-23T11:24:45;100298.13;;;14.76;100.00
60015;BME280;45867;52.480;6.056;2023-03-23T11:27:13;100286.28;;;15.57;100.00
60015;BME280;45867;52.480;6.056;2023-03-23T11:29:52;100292.31;;;17.18;100.00
60015;BME280;45867;52.480;6.056;2023-03-23T11:32:23;100294.22;;;16.70;100.00
60015;BME280;45867;52.480;6.056;2023-03-23T11:35:04;100279.72;;;16.24;100.00
60015;BME280;45867;52.480;6.056;2023-03-23T11:37:41;100292.06;;;14.84;100.00
60015;BME280;45867;52.480;6.056;2023-03-23T11:48:21;100301.84;;;13.63;100.00
60015;BME280;45867;52.480;6.056;2023-03-23T11:50:53;100315.91;;;14.36;100.00
60015;BME280;45867;52.480;6.056;2023-03-23T11:53:42;100301.38;;;14.19;100.00
60015;BME280;45867;52.480;6.056;2023-03-23T11:56:24;100317.19;;;13.80;100.00
60015;BME280;45867;52.480;6.056;2023-03-23T11:58:56;100313.94;;;13.69;100.00
60015;BME280;45867;52.480;6.056;2023-03-23T12:09:39;100312.63;;;14.39;100.00
60015;BME280;45867;52.480;6.056;2023-03-23T12:12:31;100317.13;;;14.30;100.00
60015;BME280;45867;52.480;6.056;2023-03-23T12:23:23;100295.22;;;13.96;100.00
60015;BME280;45867;52.480;6.056;2023-03-23T12:25:59;100301.66;;;13.95;100.00
60015;BME280;45867;52.480;6.056;2023-03-23T12:29:10;100302.50;;;14.05;100.00
60015;BME280;45867;52.480;6.056;2023-03-23T12:31:59;100306.47;;;14.52;100.00
60015;BME280;45867;52.480;6.056;2023-03-23T12:35:00;100295.81;;;14.30;100.00
60015;BME280;45867;52.480;6.056;2023-03-23T12:43:13;100301.63;;;14.85;100.00
60015;BME280;45867;52.480;6.056;2023-03-23T12:45:47;100329.13;;;14.41;100.00
60015;BME280;45867;52.480;6.056;2023-03-23T12:48:20;100305.88;;;13.96;100.00
60015;BME280;45867;52.480;6.056;2023-03-23T12:51:06;100304.16;;;13.92;100.00
60015;BME280;45867;52.480;6.056;2023-03-23T12:56:16;100304.41;;;13.54;100.00
60015;BME280;45867;52.480;6.056;2023-03-23T12:58:45;100302.47;;;13.46;100.00
60015;BME280;45867;52.480;6.056;2023-03-23T13:01:30;100305.59;;;13.62;100.00
60015;BME280;45867;52.480;6.056;2023-03-23T13:06:41;100307.72;;;15.74;100.00
60015;BME280;45867;52.480;6.056;2023-03-23T13:09:32;100304.69;;;16.28;100.00
60015;BME280;45867;52.480;6.056;2023-03-23T13:12:02;100295.66;;;16.68;100.00
60015;BME280;45867;52.480;6.056;2023-03-23T13:23:36;100279.63;;;16.50;100.00
60015;BME280;45867;52.480;6.056;2023-03-23T13:26:17;100279.34;;;15.39;100.00
60015;BME280;45867;52.480;6.056;2023-03-23T13:31:38;100302.00;;;14.70;100.00
60015;BME280;45867;52.480;6.056;2023-03-23T13:34:19;100306.75;;;14.73;100.00
60015;BME280;45867;52.480;6.056;2023-03-23T13:36:57;100300.09;;;14.93;100.00
60015;BME280;45867;52.480;6.056;2023-03-23T13:39:31;100294.16;;;16.14;100.00
60015;BME280;45867;52.480;6.056;2023-03-23T13:49:59;100291.69;;;14.46;100.00
60015;BME280;45867;52.480;6.056;2023-03-23T13:57:53;100295.91;;;16.10;100.00
60015;BME280;45867;52.480;6.056;2023-03-23T14:03:16;100308.88;;;16.64;100.00
60015;BME280;45867;52.480;6.056;2023-03-23T14:06:00;100297.19;;;16.13;100.00
60015;BME280;45867;52.480;6.056;2023-03-23T14:10:58;100296.31;;;14.94;100.00
60015;BME280;45867;52.480;6.056;2023-03-23T14:19:29;100308.19;;;13.89;100.00
60015;BME280;45867;52.480;6.056;2023-03-23T14:21:58;100309.97;;;13.80;100.00
60015;BME280;45867;52.480;6.056;2023-03-23T14:24:32;100274.66;;;13.10;100.00
60015;BME280;45867;52.480;6.056;2023-03-23T14:27:20;100286.50;;;13.18;100.00
60015;BME280;45867;52.480;6.056;2023-03-23T14:30:00;100291.84;;;14.05;100.00
60015;BME280;45867;52.480;6.056;2023-03-23T14:32:45;100277.25;;;14.47;100.00
60015;BME280;45867;52.480;6.056;2023-03-23T14:35:34;100278.03;;;14.48;100.00
60015;BME280;45867;52.480;6.056;2023-03-23T14:38:00;100270.34;;;14.24;100.00
60015;BME280;45867;52.480;6.056;2023-03-23T14:40:26;100288.75;;;13.89;100.00
60015;BME280;45867;52.480;6.056;2023-03-23T14:42:53;100293.59;;;13.87;100.00
60015;BME280;45867;52.480;6.056;2023-03-23T14:45:21;100292.09;;;13.94;100.00